Portada
METAR-TAF:

METAR-TAF

Aeropuertos :

Yazd, Irán

latitud: 31-54N, longitud: 054-24E, altitud: 1238 m

Observación

El informe se hizo hace 1 hora y 7 minutos, a las 23:00 UTC
Viento 6 kt del sur-suroeste
Temperatura 26°C
Humedad 14%
Presión 1019 hPa
Visibilidad 10 km o más
sin nubes por debajo de 1500 m y sin presencia de cumulonimbus.

METAR: OIYY 272300Z 21006KT CAVOK 26/M04 Q1019

Hora: 04:37 (00:07 UTC)


TAF: falta

Observaciones y pronósticos meteorológicos de más de 4000 aeropuertos (mensajes METAR y TAF).

Los puntos amarillos y rojos representan las estaciones disponibles.

Ponga el ratón en el punto deseado para ver el nombre de la estación.

Haga clic para ver las observaciones y los pronósticos meteorológicos.

Para cambiar el mapa : haga clic en los botones verdes con una cruz de color negro para hacer un zoom, en el botón verde con un guión para alejar o en las flechas verdes para mapas adyacentes.


METAR-TAF: